Time;durP1;ratioP1;P1;durP2;ratioP2;P2;SDS_P1;SDS_P2;PMS_P1;PMS_P2;Temp;Humidity;BMP_temperature;BMP_pressure;BME280_temperature;BME280_humidity;BME280_pressure;Samples;Min_cycle;Max_cycle;Signal;HPM_P1;HPM_P2
2022/05/18 00:01:35;;;;;;;57.05;30.90;;;16.90;99.90;;;;;;5054377;28;20045;-90
2022/05/18 00:04:00;;;;;;;61.70;32.50;;;16.80;99.90;;;;;;5036470;28;20048;-91
2022/05/18 00:06:26;;;;;;;58.38;31.02;;;16.80;99.90;;;;;;5054132;28;20047;-90
2022/05/18 00:08:52;;;;;;;61.95;34.45;;;16.80;99.90;;;;;;5054131;28;20052;-91
2022/05/18 00:11:19;;;;;;;55.92;30.83;;;16.80;99.90;;;;;;5036498;28;20047;-92
2022/05/18 00:13:47;;;;;;;60.72;31.10;;;16.70;99.90;;;;;;5036083;28;20052;-91
2022/05/18 00:16:15;;;;;;;68.40;32.45;;;16.80;99.90;;;;;;5035711;28;20136;-86
2022/05/18 00:18:40;;;;;;;58.05;31.70;;;16.70;99.90;;;;;;5053822;28;20485;-91
2022/05/18 00:21:07;;;;;;;68.60;32.17;;;16.70;99.90;;;;;;5036307;28;20041;-91
2022/05/18 00:23:33;;;;;;;63.95;31.55;;;16.70;99.90;;;;;;5053955;28;20045;-91
2022/05/18 00:25:59;;;;;;;64.03;31.45;;;16.70;99.90;;;;;;5053365;28;20484;-91
2022/05/18 00:28:25;;;;;;;60.10;30.17;;;16.60;99.90;;;;;;5036164;28;20052;-92
2022/05/18 00:30:51;;;;;;;60.08;31.88;;;16.70;99.90;;;;;;5036435;28;20037;-92
2022/05/18 00:33:17;;;;;;;52.92;31.60;;;16.60;99.90;;;;;;5036789;28;20053;-93
2022/05/18 00:35:43;;;;;;;60.03;30.50;;;16.60;99.90;;;;;;5036269;28;20500;-90
2022/05/18 00:38:09;;;;;;;60.28;31.30;;;16.60;99.90;;;;;;5035621;28;20049;-90
2022/05/18 00:40:39;;;;;;;66.82;32.30;;;16.60;99.90;;;;;;5035820;28;20546;-90
2022/05/18 00:43:04;;;;;;;58.00;28.83;;;16.60;99.90;;;;;;5053583;28;20048;-90
2022/05/18 00:45:31;;;;;;;54.13;29.42;;;16.60;99.90;;;;;;5035678;28;20045;-90
2022/05/18 00:47:56;;;;;;;54.45;29.63;;;16.60;99.90;;;;;;5036622;28;20079;-92
2022/05/18 00:50:27;;;;;;;54.85;28.38;;;16.60;99.90;;;;;;5036060;28;20134;-92
2022/05/18 00:53:04;;;;;;;57.35;29.00;;;16.50;99.90;;;;;;5035916;28;20056;-92
2022/05/18 00:55:33;;;;;;;57.30;28.50;;;16.50;99.90;;;;;;5035625;28;20049;-92
2022/05/18 00:58:17;;;;;;;55.25;29.73;;;16.50;99.90;;;;;;5035875;28;20045;-92
2022/05/18 01:00:44;;;;;;;49.45;26.90;;;16.50;99.90;;;;;;5035869;28;20056;-92
2022/05/18 01:03:21;;;;;;;54.17;28.58;;;16.50;99.90;;;;;;5053521;28;20041;-92
2022/05/18 01:05:51;;;;;;;46.42;27.45;;;16.50;99.90;;;;;;5053405;28;20048;-92
2022/05/18 01:08:36;;;;;;;49.97;28.15;;;16.40;99.90;;;;;;5053379;28;20170;-92
2022/05/18 01:11:01;;;;;;;47.80;25.88;;;16.40;99.90;;;;;;5019383;28;20037;-92
2022/05/18 01:13:27;;;;;;;52.42;27.60;;;16.40;99.90;;;;;;5035566;28;20274;-93
2022/05/18 01:15:53;;;;;;;46.83;25.08;;;16.40;99.90;;;;;;5035122;28;20053;-92
2022/05/18 01:18:19;;;;;;;44.40;23.48;;;16.40;99.90;;;;;;5035336;28;20115;-91
2022/05/18 01:20:46;;;;;;;40.15;22.98;;;16.50;99.90;;;;;;5035485;28;20476;-91
2022/05/18 01:23:39;;;;;;;41.95;23.52;;;16.40;99.90;;;;;;5035696;28;20056;-91
2022/05/18 01:26:18;;;;;;;40.40;22.15;;;16.40;99.90;;;;;;5038673;28;20136;-91
2022/05/18 01:28:56;;;;;;;41.65;22.80;;;16.40;99.90;;;;;;5035286;28;20477;-91
2022/05/18 01:32:02;;;;;;;46.83;22.90;;;16.40;99.90;;;;;;5035352;28;20053;-91
2022/05/18 01:34:31;;;;;;;45.60;22.92;;;16.30;99.90;;;;;;4956249;28;20050;-91
2022/05/18 01:36:58;;;;;;;42.47;24.63;;;16.30;99.90;;;;;;4956356;28;20394;-91
2022/05/18 01:39:50;;;;;;;42.10;24.60;;;16.30;99.90;;;;;;4999963;28;20485;-92
2022/05/18 01:42:30;;;;;;;44.53;24.00;;;16.30;99.90;;;;;;5038960;28;20128;-91
2022/05/18 01:44:55;;;;;;;43.25;24.25;;;16.30;99.90;;;;;;5038765;28;20045;-91
2022/05/18 01:47:21;;;;;;;38.95;23.00;;;16.20;99.90;;;;;;5056593;28;20037;-91
2022/05/18 01:49:48;;;;;;;40.20;23.58;;;16.20;99.90;;;;;;5056550;28;20040;-91
2022/05/18 01:52:14;;;;;;;43.42;22.42;;;16.20;99.90;;;;;;5038789;28;20051;-91
2022/05/18 01:54:43;;;;;;;42.83;22.52;;;16.20;99.90;;;;;;5038712;28;20048;-91
2022/05/18 01:57:09;;;;;;;40.13;22.17;;;16.20;99.90;;;;;;5038675;28;20045;-91
2022/05/18 01:59:36;;;;;;;43.30;24.17;;;16.20;99.90;;;;;;5038402;28;20063;-91
2022/05/18 02:02:03;;;;;;;41.80;24.85;;;16.20;99.90;;;;;;5038916;28;20045;-91
2022/05/18 02:04:32;;;;;;;42.80;25.52;;;16.10;99.90;;;;;;5056381;28;20485;-91
2022/05/18 02:06:59;;;;;;;45.67;25.25;;;16.10;99.90;;;;;;5056470;28;20041;-94
2022/05/18 02:09:25;;;;;;;40.35;22.98;;;16.10;99.90;;;;;;5038877;28;20052;-92
2022/05/18 02:11:51;;;;;;;44.63;24.80;;;16.00;99.90;;;;;;5056310;28;20061;-93
2022/05/18 02:14:17;;;;;;;41.22;23.73;;;16.00;99.90;;;;;;5038252;28;20397;-93
2022/05/18 02:16:43;;;;;;;42.03;22.52;;;16.00;99.90;;;;;;5038037;28;20049;-92
2022/05/18 02:19:09;;;;;;;37.25;22.85;;;15.90;99.90;;;;;;5038300;28;20125;-91
2022/05/18 02:21:34;;;;;;;39.65;23.42;;;15.90;99.90;;;;;;5038274;28;20053;-91
2022/05/18 02:24:00;;;;;;;42.47;23.83;;;15.90;99.90;;;;;;5038584;28;20400;-92
2022/05/18 02:26:26;;;;;;;40.13;23.70;;;15.90;99.90;;;;;;5056066;28;20364;-92
2022/05/18 02:28:51;;;;;;;39.13;22.33;;;15.80;99.90;;;;;;5055776;28;20052;-92
2022/05/18 02:31:17;;;;;;;35.03;22.10;;;15.80;99.90;;;;;;5037967;28;20055;-91
2022/05/18 02:33:43;;;;;;;38.38;22.17;;;15.80;99.90;;;;;;5038007;28;20133;-91
2022/05/18 02:36:10;;;;;;;42.63;22.13;;;15.80;99.90;;;;;;5037945;28;20547;-92
2022/05/18 02:38:37;;;;;;;39.33;22.63;;;15.70;99.90;;;;;;5037848;28;20106;-92
2022/05/18 02:41:03;;;;;;;37.47;21.33;;;15.70;99.90;;;;;;5037767;28;20488;-92
2022/05/18 02:43:29;;;;;;;40.97;21.40;;;15.70;99.90;;;;;;5055724;28;20079;-92
2022/05/18 02:46:08;;;;;;;39.25;22.20;;;15.70;99.90;;;;;;5037871;28;20041;-91
2022/05/18 02:48:34;;;;;;;35.08;20.42;;;15.60;99.90;;;;;;5037748;28;20079;-91
2022/05/18 02:50:59;;;;;;;35.17;20.33;;;15.60;99.90;;;;;;5037943;28;20492;-94
2022/05/18 02:53:25;;;;;;;35.13;21.05;;;15.60;99.90;;;;;;5037544;28;20049;-91
2022/05/18 02:56:06;;;;;;;34.35;20.48;;;15.50;99.90;;;;;;5037479;28;20045;-90
2022/05/18 02:58:37;;;;;;;31.85;20.13;;;15.50;99.90;;;;;;5055301;28;20045;-91
2022/05/18 03:01:05;;;;;;;35.25;19.33;;;15.50;99.90;;;;;;5037725;28;20052;-86
2022/05/18 03:03:32;;;;;;;34.03;19.25;;;15.50;99.90;;;;;;5055433;28;20037;-90
2022/05/18 03:05:57;;;;;;;32.50;18.67;;;15.40;99.90;;;;;;5037220;28;20047;-91
2022/05/18 03:08:23;;;;;;;29.88;19.00;;;15.40;99.90;;;;;;5055548;28;20053;-90
2022/05/18 03:10:49;;;;;;;30.92;18.98;;;15.40;99.90;;;;;;5038744;28;20400;-91
2022/05/18 03:13:14;;;;;;;29.85;17.52;;;15.40;99.90;;;;;;5037655;28;20049;-89
2022/05/18 03:15:40;;;;;;;29.45;16.48;;;15.40;99.90;;;;;;5054925;28;20492;-90
2022/05/18 03:18:06;;;;;;;33.92;18.73;;;15.30;99.90;;;;;;5037279;28;20145;-90
2022/05/18 03:23:33;;;;;;;28.15;18.17;;;15.30;99.90;;;;;;5054633;28;20491;-90
2022/05/18 03:26:14;;;;;;;30.52;17.02;;;15.30;99.90;;;;;;5037032;28;20049;-90
2022/05/18 03:28:43;;;;;;;30.75;17.42;;;15.40;99.90;;;;;;5036441;28;20044;-90
2022/05/18 03:31:09;;;;;;;29.55;16.58;;;15.40;99.90;;;;;;5036107;28;20090;-90
2022/05/18 03:33:35;;;;;;;27.95;16.90;;;15.30;99.90;;;;;;5036450;28;20052;-90
2022/05/18 03:36:01;;;;;;;45.72;18.25;;;15.30;99.90;;;;;;5036809;28;20488;-90
2022/05/18 03:38:27;;;;;;;27.15;16.92;;;15.30;99.90;;;;;;5036429;28;20484;-90
2022/05/18 03:40:55;;;;;;;28.55;16.20;;;15.30;99.90;;;;;;5036404;28;20154;-90
2022/05/18 03:43:22;;;;;;;29.17;16.52;;;15.30;99.90;;;;;;5036388;28;20048;-91
2022/05/18 03:45:48;;;;;;;29.25;15.38;;;15.20;99.90;;;;;;5036285;28;20044;-90
2022/05/18 03:48:16;;;;;;;31.45;15.82;;;15.30;99.90;;;;;;5036656;28;20048;-91
2022/05/18 03:50:44;;;;;;;30.27;17.52;;;15.30;99.90;;;;;;5054416;28;20087;-90
2022/05/18 03:53:10;;;;;;;27.27;15.70;;;15.30;99.90;;;;;;5036089;28;20053;-90
2022/05/18 03:55:38;;;;;;;29.67;17.45;;;15.20;99.90;;;;;;5036367;28;20480;-90
2022/05/18 03:58:05;;;;;;;28.90;15.85;;;15.30;99.90;;;;;;5036047;28;20120;-90
2022/05/18 04:00:32;;;;;;;32.72;16.45;;;15.20;99.90;;;;;;5035891;28;20448;-90
2022/05/18 04:02:58;;;;;;;31.55;16.38;;;15.20;99.90;;;;;;5036070;28;20395;-90
2022/05/18 04:05:23;;;;;;;26.48;16.23;;;15.20;99.90;;;;;;5035915;28;20044;-90
2022/05/18 04:07:50;;;;;;;28.80;16.20;;;15.20;99.90;;;;;;5036093;28;20056;-91
2022/05/18 04:10:16;;;;;;;28.55;15.48;;;15.20;99.90;;;;;;5053998;28;20036;-92
2022/05/18 04:12:43;;;;;;;30.90;16.70;;;15.20;99.90;;;;;;5053792;28;20388;-91
2022/05/18 04:15:11;;;;;;;29.17;16.27;;;15.20;99.90;;;;;;5035754;28;20528;-91
2022/05/18 04:17:37;;;;;;;28.38;16.27;;;15.30;99.90;;;;;;5035668;28;20064;-91
2022/05/18 04:20:04;;;;;;;28.65;17.55;;;15.30;99.90;;;;;;5035821;28;20045;-91
2022/05/18 04:22:30;;;;;;;28.38;16.50;;;15.40;99.90;;;;;;5035893;28;20124;-90
2022/05/18 04:25:01;;;;;;;32.75;16.80;;;15.40;99.90;;;;;;5035904;28;20056;-91
2022/05/18 04:27:31;;;;;;;24.65;15.60;;;15.50;99.90;;;;;;5053729;28;20102;-91
2022/05/18 04:29:57;;;;;;;32.05;17.65;;;15.50;99.90;;;;;;5035559;28;20048;-91
2022/05/18 04:32:23;;;;;;;25.33;15.30;;;15.60;99.90;;;;;;5035887;28;20476;-90
2022/05/18 04:34:50;;;;;;;28.38;15.63;;;15.70;99.90;;;;;;5035800;28;20052;-91
2022/05/18 04:37:17;;;;;;;29.88;16.02;;;15.70;99.90;;;;;;5035675;28;20041;-91
2022/05/18 04:39:42;;;;;;;30.13;16.52;;;15.80;99.90;;;;;;5053284;28;20056;-90
2022/05/18 04:42:09;;;;;;;26.70;14.65;;;15.90;99.90;;;;;;5035555;28;20044;-91
2022/05/18 04:44:35;;;;;;;28.33;15.43;;;16.00;99.90;;;;;;5053556;28;20045;-91
2022/05/18 04:47:00;;;;;;;25.88;15.30;;;16.10;99.90;;;;;;5035641;28;20044;-90
2022/05/18 04:49:27;;;;;;;25.58;15.35;;;16.20;99.90;;;;;;5035517;28;20045;-91
2022/05/18 04:51:52;;;;;;;26.70;15.55;;;16.20;99.90;;;;;;5035540;28;20056;-91
2022/05/18 04:54:18;;;;;;;25.05;15.25;;;16.20;99.90;;;;;;5053143;28;20041;-91
2022/05/18 04:56:43;;;;;;;28.55;15.82;;;16.20;99.90;;;;;;5035629;28;20052;-91
2022/05/18 04:59:09;;;;;;;23.85;14.65;;;16.20;99.90;;;;;;5035204;28;20131;-91
2022/05/18 05:01:35;;;;;;;25.33;15.20;;;16.30;99.90;;;;;;5035337;28;20132;-90
2022/05/18 05:04:02;;;;;;;27.33;14.68;;;16.30;99.90;;;;;;5035294;28;20077;-91
2022/05/18 05:06:28;;;;;;;27.48;14.75;;;16.40;99.90;;;;;;5035274;28;20515;-91
2022/05/18 05:08:53;;;;;;;26.65;15.27;;;16.40;99.90;;;;;;5035281;28;20089;-91
2022/05/18 05:11:19;;;;;;;24.65;15.90;;;16.50;99.90;;;;;;5035589;28;20128;-91
2022/05/18 05:13:45;;;;;;;29.20;16.23;;;16.60;99.90;;;;;;5056507;28;20373;-89
2022/05/18 05:16:11;;;;;;;25.63;15.25;;;16.70;99.90;;;;;;5039054;28;20435;-90
2022/05/18 05:18:38;;;;;;;31.05;16.73;;;16.90;99.90;;;;;;5039222;28;20063;-90
2022/05/18 05:21:05;;;;;;;34.35;15.48;;;17.00;99.90;;;;;;5038834;28;20053;-90
2022/05/18 05:23:32;;;;;;;25.70;15.30;;;17.10;99.90;;;;;;5039241;28;20049;-90
2022/05/18 05:25:59;;;;;;;27.63;14.60;;;17.20;99.90;;;;;;5038900;28;20473;-90
2022/05/18 05:28:25;;;;;;;25.55;15.82;;;17.20;99.90;;;;;;5039155;28;20049;-90
2022/05/18 05:30:50;;;;;;;25.20;15.85;;;17.30;99.90;;;;;;5056718;28;20106;-91
2022/05/18 05:33:16;;;;;;;25.92;15.57;;;17.40;99.90;;;;;;5038812;28;20052;-90
2022/05/18 05:35:42;;;;;;;26.42;16.38;;;17.40;99.90;;;;;;5038678;28;20049;-89
2022/05/18 05:38:09;;;;;;;25.20;16.40;;;17.60;99.90;;;;;;5056538;28;20045;-89
2022/05/18 05:40:36;;;;;;;35.28;17.20;;;17.70;99.90;;;;;;5038737;28;20084;-89
2022/05/18 05:43:10;;;;;;;32.03;17.38;;;17.70;99.90;;;;;;5038914;28;20469;-89
2022/05/18 05:45:36;;;;;;;27.08;16.42;;;17.70;99.90;;;;;;5039111;28;20057;-90
2022/05/18 05:48:07;;;;;;;31.73;18.58;;;17.60;99.90;;;;;;5039036;28;20382;-94
2022/05/18 05:50:32;;;;;;;27.25;16.55;;;17.70;99.90;;;;;;5038643;28;20053;-91
2022/05/18 05:52:59;;;;;;;28.23;17.23;;;17.90;99.90;;;;;;5056618;28;20167;-92
2022/05/18 05:55:26;;;;;;;29.20;17.30;;;18.00;99.90;;;;;;5056760;28;20116;-91
2022/05/18 05:57:56;;;;;;;31.55;18.08;;;18.00;99.90;;;;;;5038430;28;20049;-90
2022/05/18 06:00:23;;;;;;;34.13;18.10;;;18.10;99.90;;;;;;5038562;28;20064;-89
2022/05/18 06:02:50;;;;;;;30.90;18.40;;;18.20;99.90;;;;;;5038331;28;20044;-85
2022/05/18 06:05:17;;;;;;;29.45;17.67;;;18.30;99.90;;;;;;5038257;28;20477;-86
2022/05/18 06:07:43;;;;;;;32.33;19.67;;;18.40;99.90;;;;;;5056293;28;20068;-87
2022/05/18 06:10:10;;;;;;;28.77;18.08;;;18.60;99.90;;;;;;5038177;28;20083;-87
2022/05/18 06:12:36;;;;;;;29.38;17.48;;;18.70;99.90;;;;;;5038374;28;20043;-88
2022/05/18 06:15:03;;;;;;;32.30;18.38;;;18.80;99.90;;;;;;5038095;28;20091;-88
2022/05/18 06:17:28;;;;;;;33.38;20.45;;;18.90;99.90;;;;;;5037971;28;20084;-88
2022/05/18 06:19:54;;;;;;;33.00;19.30;;;19.00;99.90;;;;;;5037983;28;20072;-88
2022/05/18 06:22:20;;;;;;;32.90;19.70;;;19.00;99.90;;;;;;5056096;28;20040;-88
2022/05/18 06:24:49;;;;;;;33.35;18.88;;;19.10;99.90;;;;;;5037571;28;20041;-87
2022/05/18 06:27:15;;;;;;;33.28;20.30;;;19.10;99.90;;;;;;5037828;28;20381;-87
2022/05/18 06:29:41;;;;;;;35.83;21.13;;;19.40;99.90;;;;;;5037782;28;20128;-88
2022/05/18 06:32:07;;;;;;;34.90;22.08;;;19.60;99.90;;;;;;5055630;28;20131;-87
2022/05/18 06:34:32;;;;;;;40.25;21.80;;;19.70;99.90;;;;;;5055790;28;20033;-89
2022/05/18 06:36:58;;;;;;;39.58;23.65;;;19.70;99.90;;;;;;5037659;28;20049;-88
2022/05/18 06:39:24;;;;;;;39.03;22.10;;;19.90;99.90;;;;;;5037518;28;20124;-88
2022/05/18 06:41:49;;;;;;;38.95;22.50;;;19.70;99.90;;;;;;5055597;28;20496;-88
2022/05/18 06:44:16;;;;;;;39.53;23.23;;;19.80;99.90;;;;;;5035932;28;20045;-89
2022/05/18 06:46:42;;;;;;;44.92;23.23;;;20.00;99.90;;;;;;5037601;28;20128;-86
2022/05/18 06:49:11;;;;;;;36.03;23.20;;;20.20;99.90;;;;;;5036187;28;20128;-86
2022/05/18 06:51:40;;;;;;;48.22;25.80;;;20.20;99.90;;;;;;5055308;28;20080;-88
2022/05/18 06:54:05;;;;;;;41.88;24.63;;;20.30;99.90;;;;;;5037193;28;20049;-86
2022/05/18 06:56:34;;;;;;;42.13;25.45;;;20.40;99.90;;;;;;5054923;28;20041;-86
2022/05/18 06:59:01;;;;;;;43.55;24.90;;;20.60;99.90;;;;;;5036922;28;20048;-87
2022/05/18 07:01:28;;;;;;;45.33;25.95;;;20.60;99.90;;;;;;5036827;28;20126;-87
2022/05/18 07:03:54;;;;;;;39.40;22.92;;;20.60;99.90;;;;;;5054669;28;20373;-87
2022/05/18 07:06:22;;;;;;;44.80;25.33;;;20.80;99.90;;;;;;5054705;28;20032;-86
2022/05/18 07:08:51;;;;;;;43.80;26.38;;;21.00;99.90;;;;;;5036455;28;20049;-86
2022/05/18 07:11:20;;;;;;;53.25;28.05;;;21.10;99.90;;;;;;5036812;28;20175;-86
2022/05/18 07:13:51;;;;;;;57.15;27.73;;;21.20;99.90;;;;;;5036740;28;20052;-87
2022/05/18 07:16:18;;;;;;;49.97;28.38;;;21.30;99.90;;;;;;5036692;28;20128;-88
2022/05/18 07:18:45;;;;;;;50.20;28.52;;;21.40;99.90;;;;;;5036480;28;20459;-86
2022/05/18 07:21:11;;;;;;;45.78;26.40;;;21.40;99.90;;;;;;5036908;28;20103;-86
2022/05/18 07:23:37;;;;;;;48.33;29.13;;;21.60;99.90;;;;;;5036416;28;20071;-85
2022/05/18 07:26:03;;;;;;;54.60;30.95;;;21.70;99.90;;;;;;5054228;28;20037;-86
2022/05/18 07:28:30;;;;;;;52.55;28.58;;;21.60;99.90;;;;;;5036538;28;20041;-91
2022/05/18 07:30:56;;;;;;;50.65;28.08;;;21.80;99.90;;;;;;5054873;28;20084;-87
2022/05/18 07:33:24;;;;;;;55.97;29.27;;;22.00;99.90;;;;;;5054531;28;20072;-88
2022/05/18 07:35:50;;;;;;;46.70;26.88;;;22.10;99.90;;;;;;5035336;28;20064;-87
2022/05/18 07:38:19;;;;;;;50.15;28.02;;;22.40;99.90;;;;;;5053981;28;20397;-88
2022/05/18 07:40:46;;;;;;;58.67;28.25;;;22.50;99.90;;;;;;5036162;28;20049;-87
2022/05/18 07:43:12;;;;;;;64.22;28.50;;;22.60;99.90;;;;;;5036243;28;20111;-88
2022/05/18 07:45:38;;;;;;;46.22;27.73;;;22.80;99.90;;;;;;5036209;28;20088;-88
2022/05/18 07:48:04;;;;;;;49.33;30.25;;;22.80;99.90;;;;;;5036156;28;20533;-89
2022/05/18 07:50:29;;;;;;;66.63;29.63;;;23.00;99.90;;;;;;5035602;28;20057;-89
2022/05/18 07:52:58;;;;;;;59.67;31.60;;;23.20;99.90;;;;;;5036256;28;20461;-88
2022/05/18 07:55:25;;;;;;;60.25;29.60;;;23.30;99.90;;;;;;5035866;28;20057;-87
2022/05/18 07:57:51;;;;;;;54.35;30.25;;;23.40;99.90;;;;;;5035700;28;20136;-87
2022/05/18 08:00:17;;;;;;;55.78;31.27;;;23.50;99.90;;;;;;5044869;28;20129;-87
2022/05/18 08:02:44;;;;;;;56.88;29.48;;;23.60;99.90;;;;;;5034011;28;20045;-88
2022/05/18 08:05:09;;;;;;;59.70;31.55;;;23.90;99.90;;;;;;5016145;28;20037;-91
2022/05/18 08:07:35;;;;;;;52.67;29.52;;;24.00;99.90;;;;;;5033384;28;20172;-91
2022/05/18 08:15:31;;;;;;;56.30;27.20;;;24.40;99.90;;;;;;5015714;28;20416;-91
2022/05/18 08:17:57;;;;;;;51.22;30.35;;;24.60;99.90;;;;;;5019642;28;20488;-89
2022/05/18 08:20:23;;;;;;;48.17;25.92;;;24.60;99.90;;;;;;5045849;28;20131;-88
2022/05/18 08:22:49;;;;;;;45.40;25.70;;;24.80;99.90;;;;;;5035413;28;20095;-89
2022/05/18 08:25:15;;;;;;;44.40;25.77;;;24.90;99.90;;;;;;5035730;28;20575;-90
2022/05/18 08:27:47;;;;;;;44.67;25.55;;;25.00;99.90;;;;;;5035516;28;20124;-92
2022/05/18 08:30:17;;;;;;;;;;;25.00;99.90;;;;;;5053089;28;20053;-92
2022/05/18 08:32:43;;;;;;;42.63;24.05;;;25.20;99.90;;;;;;5053010;28;19921;-91
2022/05/18 08:35:10;;;;;;;42.83;22.58;;;25.30;99.90;;;;;;5038101;28;20076;-90
2022/05/18 08:37:44;;;;;;;39.90;22.45;;;25.30;99.90;;;;;;5015535;28;20072;-92
2022/05/18 08:40:21;;;;;;;39.03;20.58;;;25.30;99.90;;;;;;5015630;28;20060;-92
2022/05/18 08:42:47;;;;;;;34.17;19.55;;;25.30;99.90;;;;;;5031469;28;20555;-90
2022/05/18 08:45:12;;;;;;;42.33;19.65;;;25.40;99.90;;;;;;5015118;28;20077;-89
2022/05/18 08:47:46;;;;;;;31.98;16.77;;;25.70;99.90;;;;;;5015237;28;20052;-86
2022/05/18 08:50:18;;;;;;;29.50;18.13;;;25.80;99.90;;;;;;5015542;28;20535;-85
2022/05/18 08:53:08;;;;;;;37.83;20.15;;;26.00;99.90;;;;;;5015437;28;20050;-84
2022/05/18 08:56:08;;;;;;;36.83;20.83;;;26.10;99.90;;;;;;5032808;28;20045;-84
2022/05/18 08:58:42;;;;;;;37.42;21.80;;;26.40;99.90;;;;;;5015122;28;20134;-85
2022/05/18 09:01:25;;;;;;;42.13;21.67;;;26.50;99.90;;;;;;5033177;28;20171;-84
2022/05/18 09:03:59;;;;;;;44.35;23.98;;;26.50;99.90;;;;;;5015284;28;20175;-84
2022/05/18 09:07:04;;;;;;;45.78;23.75;;;26.40;99.90;;;;;;5015663;28;20065;-84
2022/05/18 09:12:36;;;;;;;39.60;22.27;;;26.40;99.90;;;;;;5033265;28;20049;-87
2022/05/18 09:15:07;;;;;;;54.97;25.88;;;26.60;99.90;;;;;;5015271;28;20144;-87
2022/05/18 09:17:33;;;;;;;53.33;30.52;;;26.70;99.90;;;;;;5015491;28;20045;-87
2022/05/18 09:20:20;;;;;;;55.90;31.50;;;26.70;99.90;;;;;;5015285;28;20060;-88
2022/05/18 09:23:01;;;;;;;60.13;31.73;;;26.40;99.90;;;;;;5015422;28;20443;-88
2022/05/18 09:25:38;;;;;;;66.40;39.55;;;26.20;99.90;;;;;;5015556;28;20045;-88
2022/05/18 09:28:23;;;;;;;61.50;36.88;;;25.80;99.90;;;;;;5015557;28;20045;-87
2022/05/18 09:31:08;;;;;;;73.45;39.40;;;25.70;99.90;;;;;;5015366;28;20056;-88
2022/05/18 09:33:48;;;;;;;75.80;41.85;;;25.50;99.90;;;;;;5033256;28;20127;-87
2022/05/18 09:36:46;;;;;;;72.82;42.40;;;25.10;99.90;;;;;;5015286;28;20053;-88
2022/05/18 09:39:17;;;;;;;72.78;40.22;;;25.20;99.90;;;;;;5015189;28;20136;-87
2022/05/18 09:41:59;;;;;;;75.20;42.30;;;25.20;99.90;;;;;;5015268;28;20049;-88
2022/05/18 09:44:41;;;;;;;85.32;44.80;;;25.10;99.90;;;;;;5015405;28;20042;-88
2022/05/18 09:47:09;;;;;;;71.05;41.28;;;24.50;99.90;;;;;;5015368;28;20456;-88
2022/05/18 09:49:44;;;;;;;76.28;41.05;;;24.40;99.90;;;;;;5015409;28;20057;-92
2022/05/18 09:52:12;;;;;;;75.28;41.00;;;24.70;99.90;;;;;;5015398;28;20049;-88
2022/05/18 09:54:38;;;;;;;73.63;41.60;;;24.90;99.90;;;;;;5032631;28;20561;-88
2022/05/18 09:57:13;;;;;;;78.13;42.97;;;24.80;99.90;;;;;;5032936;28;20104;-88
2022/05/18 09:59:51;;;;;;;83.75;48.30;;;25.00;99.90;;;;;;5035679;28;20089;-87
2022/05/18 10:07:58;;;;;;;88.38;44.60;;;25.00;99.90;;;;;;5018390;28;20053;-87
2022/05/18 10:10:32;;;;;;;81.85;47.25;;;24.80;99.90;;;;;;5018685;28;20100;-87
2022/05/18 10:13:05;;;;;;;89.30;44.22;;;24.60;99.90;;;;;;5018352;28;20053;-88
2022/05/18 10:15:47;;;;;;;91.90;47.17;;;24.70;99.90;;;;;;5036203;28;20085;-88
2022/05/18 10:18:19;;;;;;;97.75;47.47;;;24.50;99.90;;;;;;5018435;28;20053;-88
2022/05/18 10:21:00;;;;;;;;;;;24.30;99.90;;;;;;5018674;28;20132;-88
2022/05/18 10:23:30;;;;;;;99.00;45.33;;;24.20;99.90;;;;;;5018206;28;19921;-88
2022/05/18 10:25:56;;;;;;;106.55;47.38;;;23.90;99.90;;;;;;5018367;28;20046;-88
2022/05/18 10:28:25;;;;;;;89.93;48.20;;;23.60;99.90;;;;;;5035797;28;20049;-88
2022/05/18 10:31:02;;;;;;;99.22;46.65;;;23.60;99.90;;;;;;5018389;28;20046;-88
2022/05/18 10:33:35;;;;;;;93.25;47.13;;;23.20;99.90;;;;;;5035976;28;20037;-88
2022/05/18 10:36:26;;;;;;;95.90;49.53;;;23.20;99.90;;;;;;5035683;28;20044;-88
2022/05/18 10:38:57;;;;;;;92.97;46.28;;;23.30;99.90;;;;;;5035897;28;20052;-88
2022/05/18 10:41:28;;;;;;;93.70;46.75;;;23.40;99.90;;;;;;5035834;28;20054;-88
2022/05/18 10:44:20;;;;;;;104.65;45.85;;;23.60;99.90;;;;;;5035791;28;20134;-88
2022/05/18 10:46:49;;;;;;;90.50;47.25;;;23.70;99.90;;;;;;5017855;28;20048;-87
2022/05/18 10:49:31;;;;;;;94.40;47.13;;;23.80;99.90;;;;;;5035371;28;20481;-87
2022/05/18 10:52:37;;;;;;;85.25;45.05;;;23.70;99.90;;;;;;5035663;28;20041;-87
2022/05/18 10:55:16;;;;;;;93.47;49.05;;;23.90;99.90;;;;;;5034629;28;20049;-87
2022/05/18 10:58:01;;;;;;;93.25;46.25;;;24.00;99.90;;;;;;5017785;28;20121;-87
2022/05/18 11:00:35;;;;;;;94.45;47.90;;;23.80;99.90;;;;;;5035336;28;20053;-88
2022/05/18 11:03:16;;;;;;;95.72;47.25;;;23.70;99.90;;;;;;5035393;28;20049;-88
2022/05/18 11:06:04;;;;;;;94.55;47.15;;;23.60;99.90;;;;;;5035559;28;20120;-87
2022/05/18 11:08:31;;;;;;;85.63;45.28;;;23.50;99.90;;;;;;5035010;28;20405;-87
2022/05/18 11:11:15;;;;;;;94.78;46.28;;;23.60;99.90;;;;;;5034081;28;20120;-88
2022/05/18 11:14:07;;;;;;;78.97;45.67;;;23.70;99.90;;;;;;5035232;28;20088;-88
2022/05/18 11:17:20;;;;;;;92.30;46.67;;;23.80;99.90;;;;;;5034876;28;20054;-90
2022/05/18 11:20:04;;;;;;;92.00;44.78;;;23.70;99.90;;;;;;4938570;29;20450;-90
2022/05/18 11:22:42;;;;;;;88.70;44.40;;;23.70;99.90;;;;;;5011403;28;20049;-89
2022/05/18 11:25:18;;;;;;;97.65;48.05;;;23.70;99.90;;;;;;5035095;28;20045;-88
2022/05/18 11:28:08;;;;;;;92.50;45.33;;;23.70;99.90;;;;;;5034917;28;20041;-88
2022/05/18 11:30:45;;;;;;;90.97;43.20;;;24.00;99.90;;;;;;5017255;28;20493;-88
2022/05/18 11:33:29;;;;;;;94.18;43.15;;;24.30;99.90;;;;;;5034747;28;20049;-88
2022/05/18 11:36:20;;;;;;;89.53;43.55;;;24.20;99.90;;;;;;5016921;28;20528;-88
2022/05/18 11:39:11;;;;;;;81.28;40.00;;;24.00;99.90;;;;;;5016708;28;20049;-88
2022/05/18 11:42:05;;;;;;;88.63;41.20;;;24.30;99.90;;;;;;5017140;28;20049;-89
2022/05/18 11:44:56;;;;;;;91.22;43.42;;;24.30;99.90;;;;;;5034590;28;20053;-88
2022/05/18 11:47:40;;;;;;;93.30;42.13;;;24.20;99.90;;;;;;5034391;28;20064;-88
2022/05/18 11:50:08;;;;;;;91.45;41.88;;;24.10;99.90;;;;;;5016541;28;20060;-88
2022/05/18 11:52:59;;;;;;;84.57;42.88;;;23.90;99.90;;;;;;5016248;28;20053;-88
2022/05/18 11:55:34;;;;;;;95.35;43.55;;;23.70;99.90;;;;;;5016887;28;20053;-87
2022/05/18 11:58:26;;;;;;;93.63;44.97;;;23.50;99.90;;;;;;5016584;28;20088;-87
2022/05/18 12:01:11;;;;;;;81.35;42.35;;;23.70;99.90;;;;;;5034358;28;20041;-88
2022/05/18 12:04:01;;;;;;;95.47;41.30;;;23.60;99.90;;;;;;5016500;28;20139;-86
2022/05/18 12:06:26;;;;;;;89.70;44.65;;;23.70;99.90;;;;;;5034070;28;20041;-87
2022/05/18 12:09:00;;;;;;;87.25;40.90;;;23.50;99.90;;;;;;5033832;28;20046;-89
2022/05/18 12:11:59;;;;;;;86.10;42.70;;;23.60;99.90;;;;;;5016197;28;20053;-84
2022/05/18 12:14:49;;;;;;;95.07;43.67;;;23.70;99.90;;;;;;5017011;28;20120;-87
2022/05/18 12:17:31;;;;;;;88.28;40.10;;;23.30;99.90;;;;;;5016299;28;20057;-90
2022/05/18 12:20:11;;;;;;;85.07;40.65;;;23.10;99.90;;;;;;5016480;28;20045;-90
2022/05/18 12:22:45;;;;;;;83.40;41.70;;;22.70;99.90;;;;;;5016147;28;20044;-88
2022/05/18 12:25:13;;;;;;;90.57;41.30;;;22.30;99.90;;;;;;5016412;28;20057;-87
2022/05/18 12:27:40;;;;;;;90.72;42.33;;;22.00;99.90;;;;;;5016178;28;20512;-88
2022/05/18 12:30:10;;;;;;;82.82;40.70;;;21.70;99.90;;;;;;5015879;28;20051;-89
2022/05/18 12:32:36;;;;;;;85.03;39.50;;;21.80;99.90;;;;;;5016382;28;20052;-88
2022/05/18 12:35:12;;;;;;;78.85;39.15;;;21.80;99.90;;;;;;5016375;28;20045;-86
2022/05/18 12:38:03;;;;;;;88.25;42.15;;;21.90;99.90;;;;;;5016266;28;20046;-91
2022/05/18 12:40:45;;;;;;;90.40;40.13;;;21.60;99.90;;;;;;5015878;28;20053;-89
2022/05/18 12:43:17;;;;;;;;;;;21.60;99.90;;;;;;5017085;28;20059;-90
2022/05/18 12:45:47;;;;;;;96.35;39.83;;;21.30;99.90;;;;;;5016153;28;19928;-87
2022/05/18 12:48:22;;;;;;;85.22;38.67;;;20.80;99.90;;;;;;5016242;28;20121;-88
2022/05/18 12:50:47;;;;;;;82.70;37.45;;;20.70;99.90;;;;;;5033846;28;20077;-86
2022/05/18 12:53:21;;;;;;;82.25;36.45;;;20.80;99.90;;;;;;5015829;28;20127;-85
2022/05/18 12:56:07;;;;;;;84.32;38.33;;;20.80;99.90;;;;;;5016012;28;20100;-87
2022/05/18 12:58:41;;;;;;;76.22;37.70;;;20.60;99.90;;;;;;5015545;28;20095;-87
2022/05/18 13:01:16;;;;;;;91.05;39.42;;;20.50;99.90;;;;;;5033305;28;20057;-87
2022/05/18 13:03:52;;;;;;;88.03;37.45;;;20.20;99.90;;;;;;5033309;28;20417;-87
2022/05/18 13:06:35;;;;;;;87.28;38.15;;;20.30;99.90;;;;;;5033614;28;20057;-88